OOCL Kaohsiung — 9V9830 — position and weather

sailwx.info

Track history (hours):
 
Tides and Currents Weather Stations Pressure Air Temp Water Temp Dewpoint Dewpoint Depression Visibility Wind Speed Wind Dir Waves Ship Positions

OOCL Kaohsiung

Last reported at 2014-Aug-22 03:33 UTC. Time now 2014-Aug-22 11:48 UTC.
Position N 37°28' W 070°07'.

Length 280 m; draft 12.6 m.

Type: Cargo ship. MMSI: 566389000.

Date/timePositionNaut miles runAvg speedWind from/ knotsBaromVisibWave heightAir tempDewpointWater temp
2014-Aug-22 03:33N 37°28' W 070°07'2019.6
2014-Aug-22 02:34N 37°22' W 070°30'2120.7
2014-Aug-22 01:33N 37°16' W 070°55'2019.8
2014-Aug-22 00:33N 37°16' W 071°20'2020.1
2014-Aug-21 23:33N 37°15' W 071°45'2222.0
2014-Aug-21 22:33N 37°11' W 072°13'2121.0
2014-Aug-21 21:33N 37°09' W 072°39'1919.4
2014-Aug-21 20:33N 37°08' W 073°03'1918.8
2014-Aug-21 19:33N 37°07' W 073°27'1818.2
2014-Aug-21 18:34N 37°08' W 073°50'2018.5
2014-Aug-21 17:30N 37°04' W 074°14'1718.4
2014-Aug-21 16:33N 37°01' W 074°35'1918.5
2014-Aug-21 15:33N 36°58' W 074°58'3716.3
2014-Aug-21 13:16N 36°49' W 075°43'1114.7
2014-Aug-21 12:33N 36°54' W 075°55'1413.1
2014-Aug-21 11:31N 36°59' W 076°10'9 9.3
2014-Aug-21 10:33N 36°55' W 076°20'1 0.9
2014-Aug-21 09:25N 36°54' W 076°20'0 0.0
2014-Aug-21 04:16N 36°54' W 076°20'0 0.0
2014-Aug-21 03:31N 36°54' W 076°20'0 0.0
2014-Aug-21 02:28N 36°54' W 076°20'0 0.0
2014-Aug-21 01:19N 36°54' W 076°20'0 0.0
2014-Aug-21 00:31N 36°54' W 076°20'0 0.0
2014-Aug-20 23:31N 36°54' W 076°20'0 0.0
2014-Aug-20 22:31N 36°54' W 076°20'0 0.0
2014-Aug-20 17:22N 36°54' W 076°20'0 0.0
2014-Aug-20 14:32N 36°54' W 076°20'4 4.4
2014-Aug-20 13:33N 36°59' W 076°20'1111.2
2014-Aug-20 12:32N 36°58' W 076°05'1010.2
2014-Aug-20 11:33N 36°54' W 075°54'16114.1
2014-Aug-20 00:08N 34°14' W 076°02'1119.7
2014-Aug-19 23:33N 34°06' W 076°12'2119.6
2014-Aug-19 22:30N 33°53' W 076°32'25316.9
2014-Aug-19 07:33N 32°05' W 081°05'4 3.9
2014-Aug-19 06:33N 32°07' W 081°08'0 0.0
2014-Aug-19 05:31N 32°07' W 081°08'0 0.0
2014-Aug-19 04:31N 32°07' W 081°08'0 0.0
2014-Aug-19 03:31N 32°07' W 081°08'0 0.0
2014-Aug-19 02:31N 32°07' W 081°08'0 0.0
2014-Aug-19 01:31N 32°07' W 081°08'0 0.0
2014-Aug-19 00:31N 32°07' W 081°08'0 0.0
2014-Aug-18 23:25N 32°07' W 081°08'0 0.0
2014-Aug-18 22:31N 32°07' W 081°08'0 0.0
2014-Aug-18 20:31N 32°07' W 081°08'0 0.0
2014-Aug-18 18:31N 32°07' W 081°08'0 0.0
2014-Aug-18 17:28N 32°07' W 081°08'0 0.0
2014-Aug-18 16:31N 32°07' W 081°08'0 0.0
2014-Aug-18 15:25N 32°07' W 081°08'0 0.0
2014-Aug-18 14:31N 32°07' W 081°08'0 0.0
2014-Aug-18 13:25N 32°07' W 081°08'0 0.0
2014-Aug-18 12:31N 32°07' W 081°08'0 0.0
2014-Aug-18 11:31N 32°07' W 081°08'0 0.0
2014-Aug-18 10:25N 32°07' W 081°08'0 0.0
2014-Aug-18 09:19N 32°07' W 081°08'0 0.4
2014-Aug-18 08:33N 32°07' W 081°08'6 5.1
2014-Aug-18 07:27N 32°05' W 081°02'29213.1
2014-Aug-17 09:05N 34°23' W 075°53'30818.3
2014-Aug-16 16:15N 39°15' W 073°53'1419.5
2014-Aug-16 15:32N 39°29' W 073°53'1919.6
2014-Aug-16 14:33N 39°48' W 073°51'2019.8
2014-Aug-16 13:33N 40°08' W 073°50'1716.5
2014-Aug-16 12:34N 40°24' W 073°48'10 9.9
2014-Aug-16 11:34N 40°31' W 073°59'1010.0
2014-Aug-16 10:34N 40°39' W 074°06'2 2.3
2014-Aug-16 09:34N 40°40' W 074°09'0 0.0
2014-Aug-16 08:33N 40°40' W 074°09'0 0.0
2014-Aug-16 07:33N 40°40' W 074°09'0 0.0
2014-Aug-16 06:33N 40°40' W 074°09'0 0.0
2014-Aug-16 05:27N 40°40' W 074°09'0 0.0
2014-Aug-16 04:30N 40°40' W 074°09'0 0.0
2014-Aug-16 03:33N 40°40' W 074°09'0 0.0
2014-Aug-16 02:33N 40°40' W 074°09'0 0.0
2014-Aug-16 01:33N 40°40' W 074°09'0 0.0
2014-Aug-16 00:33N 40°40' W 074°09'0 0.0
2014-Aug-15 23:33N 40°40' W 074°09'0 0.0
2014-Aug-15 22:33N 40°40' W 074°09'0 0.0
2014-Aug-15 21:33N 40°40' W 074°09'0 0.0
2014-Aug-15 20:24N 40°40' W 074°09'0 0.0
2014-Aug-15 19:30N 40°40' W 074°09'0 0.0
2014-Aug-15 18:33N 40°40' W 074°09'0 0.0
2014-Aug-15 17:33N 40°40' W 074°09'0 0.0
2014-Aug-15 16:33N 40°40' W 074°09'0 0.0
2014-Aug-15 15:30N 40°40' W 074°09'0 0.0
2014-Aug-15 14:33N 40°40' W 074°09'0 0.0
2014-Aug-15 13:33N 40°40' W 074°09'0 0.0
2014-Aug-15 12:30N 40°40' W 074°09'0 0.0
2014-Aug-15 11:33N 40°40' W 074°09'0 0.0
2014-Aug-15 10:33N 40°40' W 074°09'0 0.0
2014-Aug-15 09:33N 40°40' W 074°09'0 0.0
2014-Aug-15 08:33N 40°40' W 074°09'0 0.0
2014-Aug-15 07:33N 40°40' W 074°09'0 0.0
2014-Aug-15 06:33N 40°40' W 074°09'0 0.0
2014-Aug-15 05:33N 40°40' W 074°09'0 0.0
2014-Aug-15 04:33N 40°40' W 074°09'0 0.0
2014-Aug-15 03:33N 40°40' W 074°09'0 0.0
2014-Aug-15 02:33N 40°40' W 074°09'0 0.2
2014-Aug-15 01:34N 40°40' W 074°09'5 4.7
2014-Aug-15 00:34N 40°38' W 074°03'1110.9
2014-Aug-14 23:33N 40°29' W 073°54'9 8.8
2014-Aug-14 22:33N 40°28' W 073°43'4218.1
2014-Aug-14 20:14N 40°30' W 072°48'1420.6
2014-Aug-14 19:33N 40°31' W 072°29'2120.7
2014-Aug-14 18:33N 40°32' W 072°02'2120.5
2014-Aug-14 17:33N 40°32' W 071°35'2020.2
2014-Aug-14 16:33N 40°32' W 071°09'2020.1
2014-Aug-14 15:34N 40°33' W 070°42'2020.3
2014-Aug-14 14:33N 40°33' W 070°15'2120.9
2014-Aug-14 13:33N 40°33' W 069°48'2221.9
2014-Aug-14 12:33N 40°34' W 069°19'2221.6
2014-Aug-14 11:32N 40°38' W 068°51'2121.4
2014-Aug-14 10:33N 40°45' W 068°24'2020.6
2014-Aug-14 09:33N 40°55' W 068°01'2219.5
2014-Aug-14 08:25N 41°07' W 067°35'  
Track history (hours):
 
Tides and Currents Weather Stations Pressure Air Temp Water Temp Dewpoint Dewpoint Depression Visibility Wind Speed Wind Dir Waves Ship Positions

OOCL Kaohsiung

Last reported at 2014-Aug-22 03:33 UTC. Time now 2014-Aug-22 11:48 UTC.
Position N 37°28' W 070°07'.

Length 280 m; draft 12.6 m.

Type: Cargo ship. MMSI: 566389000.

Date/timePositionNaut miles runAvg speedWind from/ knotsBaromVisibWave heightAir tempDewpointWater temp
2014-Aug-22 03:33N 37°28' W 070°07'2019.6
2014-Aug-22 02:34N 37°22' W 070°30'2120.7
2014-Aug-22 01:33N 37°16' W 070°55'2019.8
2014-Aug-22 00:33N 37°16' W 071°20'2020.1
2014-Aug-21 23:33N 37°15' W 071°45'2222.0
2014-Aug-21 22:33N 37°11' W 072°13'2121.0
2014-Aug-21 21:33N 37°09' W 072°39'1919.4
2014-Aug-21 20:33N 37°08' W 073°03'1918.8
2014-Aug-21 19:33N 37°07' W 073°27'1818.2
2014-Aug-21 18:34N 37°08' W 073°50'2018.5
2014-Aug-21 17:30N 37°04' W 074°14'1718.4
2014-Aug-21 16:33N 37°01' W 074°35'1918.5
2014-Aug-21 15:33N 36°58' W 074°58'3716.3
2014-Aug-21 13:16N 36°49' W 075°43'1114.7
2014-Aug-21 12:33N 36°54' W 075°55'1413.1
2014-Aug-21 11:31N 36°59' W 076°10'9 9.3
2014-Aug-21 10:33N 36°55' W 076°20'1 0.9
2014-Aug-21 09:25N 36°54' W 076°20'0 0.0
2014-Aug-21 04:16N 36°54' W 076°20'0 0.0
2014-Aug-21 03:31N 36°54' W 076°20'0 0.0
2014-Aug-21 02:28N 36°54' W 076°20'0 0.0
2014-Aug-21 01:19N 36°54' W 076°20'0 0.0
2014-Aug-21 00:31N 36°54' W 076°20'0 0.0
2014-Aug-20 23:31N 36°54' W 076°20'0 0.0
2014-Aug-20 22:31N 36°54' W 076°20'0 0.0
2014-Aug-20 17:22N 36°54' W 076°20'0 0.0
2014-Aug-20 14:32N 36°54' W 076°20'4 4.4
2014-Aug-20 13:33N 36°59' W 076°20'1111.2
2014-Aug-20 12:32N 36°58' W 076°05'1010.2
2014-Aug-20 11:33N 36°54' W 075°54'16114.1
2014-Aug-20 00:08N 34°14' W 076°02'1119.7
2014-Aug-19 23:33N 34°06' W 076°12'2119.6
2014-Aug-19 22:30N 33°53' W 076°32'25316.9
2014-Aug-19 07:33N 32°05' W 081°05'4 3.9
2014-Aug-19 06:33N 32°07' W 081°08'0 0.0
2014-Aug-19 05:31N 32°07' W 081°08'0 0.0
2014-Aug-19 04:31N 32°07' W 081°08'0 0.0
2014-Aug-19 03:31N 32°07' W 081°08'0 0.0
2014-Aug-19 02:31N 32°07' W 081°08'0 0.0
2014-Aug-19 01:31N 32°07' W 081°08'0 0.0
2014-Aug-19 00:31N 32°07' W 081°08'0 0.0
2014-Aug-18 23:25N 32°07' W 081°08'0 0.0
2014-Aug-18 22:31N 32°07' W 081°08'0 0.0
2014-Aug-18 20:31N 32°07' W 081°08'0 0.0
2014-Aug-18 18:31N 32°07' W 081°08'0 0.0
2014-Aug-18 17:28N 32°07' W 081°08'0 0.0
2014-Aug-18 16:31N 32°07' W 081°08'0 0.0
2014-Aug-18 15:25N 32°07' W 081°08'0 0.0
2014-Aug-18 14:31N 32°07' W 081°08'0 0.0
2014-Aug-18 13:25N 32°07' W 081°08'0 0.0
2014-Aug-18 12:31N 32°07' W 081°08'0 0.0
2014-Aug-18 11:31N 32°07' W 081°08'0 0.0
2014-Aug-18 10:25N 32°07' W 081°08'0 0.0
2014-Aug-18 09:19N 32°07' W 081°08'0 0.4
2014-Aug-18 08:33N 32°07' W 081°08'6 5.1
2014-Aug-18 07:27N 32°05' W 081°02'29213.1
2014-Aug-17 09:05N 34°23' W 075°53'30818.3
2014-Aug-16 16:15N 39°15' W 073°53'1419.5
2014-Aug-16 15:32N 39°29' W 073°53'1919.6
2014-Aug-16 14:33N 39°48' W 073°51'2019.8
2014-Aug-16 13:33N 40°08' W 073°50'1716.5
2014-Aug-16 12:34N 40°24' W 073°48'10 9.9
2014-Aug-16 11:34N 40°31' W 073°59'1010.0
2014-Aug-16 10:34N 40°39' W 074°06'2 2.3
2014-Aug-16 09:34N 40°40' W 074°09'0 0.0
2014-Aug-16 08:33N 40°40' W 074°09'0 0.0
2014-Aug-16 07:33N 40°40' W 074°09'0 0.0
2014-Aug-16 06:33N 40°40' W 074°09'0 0.0
2014-Aug-16 05:27N 40°40' W 074°09'0 0.0
2014-Aug-16 04:30N 40°40' W 074°09'0 0.0
2014-Aug-16 03:33N 40°40' W 074°09'0 0.0
2014-Aug-16 02:33N 40°40' W 074°09'0 0.0
2014-Aug-16 01:33N 40°40' W 074°09'0 0.0
2014-Aug-16 00:33N 40°40' W 074°09'0 0.0
2014-Aug-15 23:33N 40°40' W 074°09'0 0.0
2014-Aug-15 22:33N 40°40' W 074°09'0 0.0
2014-Aug-15 21:33N 40°40' W 074°09'0 0.0
2014-Aug-15 20:24N 40°40' W 074°09'0 0.0
2014-Aug-15 19:30N 40°40' W 074°09'0 0.0
2014-Aug-15 18:33N 40°40' W 074°09'0 0.0
2014-Aug-15 17:33N 40°40' W 074°09'0 0.0
2014-Aug-15 16:33N 40°40' W 074°09'0 0.0
2014-Aug-15 15:30N 40°40' W 074°09'0 0.0
2014-Aug-15 14:33N 40°40' W 074°09'0 0.0
2014-Aug-15 13:33N 40°40' W 074°09'0 0.0
2014-Aug-15 12:30N 40°40' W 074°09'0 0.0
2014-Aug-15 11:33N 40°40' W 074°09'0 0.0
2014-Aug-15 10:33N 40°40' W 074°09'0 0.0
2014-Aug-15 09:33N 40°40' W 074°09'0 0.0
2014-Aug-15 08:33N 40°40' W 074°09'0 0.0
2014-Aug-15 07:33N 40°40' W 074°09'0 0.0
2014-Aug-15 06:33N 40°40' W 074°09'0 0.0
2014-Aug-15 05:33N 40°40' W 074°09'0 0.0
2014-Aug-15 04:33N 40°40' W 074°09'0 0.0
2014-Aug-15 03:33N 40°40' W 074°09'0 0.0
2014-Aug-15 02:33N 40°40' W 074°09'0 0.2
2014-Aug-15 01:34N 40°40' W 074°09'5 4.7
2014-Aug-15 00:34N 40°38' W 074°03'1110.9
2014-Aug-14 23:33N 40°29' W 073°54'9 8.8
2014-Aug-14 22:33N 40°28' W 073°43'4218.1
2014-Aug-14 20:14N 40°30' W 072°48'1420.6
2014-Aug-14 19:33N 40°31' W 072°29'2120.7
2014-Aug-14 18:33N 40°32' W 072°02'2120.5
2014-Aug-14 17:33N 40°32' W 071°35'2020.2
2014-Aug-14 16:33N 40°32' W 071°09'2020.1
2014-Aug-14 15:34N 40°33' W 070°42'2020.3
2014-Aug-14 14:33N 40°33' W 070°15'2120.9
2014-Aug-14 13:33N 40°33' W 069°48'2221.9
2014-Aug-14 12:33N 40°34' W 069°19'2221.6
2014-Aug-14 11:32N 40°38' W 068°51'2121.4
2014-Aug-14 10:33N 40°45' W 068°24'2020.6
2014-Aug-14 09:33N 40°55' W 068°01'2219.5
2014-Aug-14 08:25N 41°07' W 067°35'  

Dump ship's entire track history